Ostrowiec Swietokrzyski, Poland
Current Conditions -  °F | °C
As of 11:30 AM on Sunday 26 Oct 2014 (Local Time) from EPLB Reporting Station
Clear Clear  
Wind Chill: 35°   Ceiling: Unl
Heat Index: 39°   Visibility: 6mi
Dew Point: 30°   Wind: 6mph
Humidity: 70%   Direction: 140°SE
Pressure: 30.45"   Gusts: NA
Location:  50.95°N, 21.39°E
Report Text: EPLB 260930Z 14005KT CAVOK 04/M01 Q1031
Loading
Personal Weather Stations






























Interactive Weather Map
Tropical Storm Tracking
New forecast layout! Learn more

10-Day Weather Forecast

Advertisements
Track Severe Weather on mobile